KCHO/CHO METAR and TAF weather

Enter ICAO airport designator
Station Type Date Time Source
KCHO METAR 2020/09/24 10:53 UTC NOAA

KCHO 241053Z 00000KT 10SM CLR 14/13 A3002 RMK AO2 SLP161 T01440128


Station Type Date Time Source
KCHO Decoded METAR 2020/09/24 10:53 UTC NOAA

CHARLOTTESVILLE-ALBEMARLE, VA, United States (KCHO) 38-08N 078-27W 192M
Sep 24, 2020 - 06:53 AM EDT / 2020.09.24 1053 UTC
Wind: Calm:0
Visibility: 10 mile(s):0
Sky conditions: clear
Temperature: 57.9 F (14.4 C)
Dew Point: 55.0 F (12.8 C)
Relative Humidity: 90%
Pressure (altimeter): 30.02 in. Hg (1016 hPa)
ob: KCHO 241053Z 00000KT 10SM CLR 14/13 A3002 RMK AO2 SLP161 T01440128
cycle: 11

Station Type Date Time Source
KCHO TAF 2020/09/24 06:30 UTC NOAA

TAF KCHO 240529Z 2406/2506 00000KT P6SM OVC250
FM241600 16005KT P6SM SCT050 OVC150
FM242000 20005KT P6SM SCT050 OVC140
FM250300 VRB03KT P6SM SCT050 OVC150

Example: see airport list